createdAt,value
2022-08-21T00:01:10.684Z,3.13
2022-08-21T00:03:37.578Z,4.07
2022-08-21T00:06:04.593Z,3.72
2022-08-21T00:08:38.980Z,3.70
2022-08-21T00:11:06.265Z,3.55
2022-08-21T00:13:33.490Z,3.30
2022-08-21T00:16:03.374Z,2.97
2022-08-21T00:18:36.917Z,3.00
2022-08-21T00:21:07.798Z,3.13
2022-08-21T00:23:35.549Z,3.72
2022-08-21T00:26:06.664Z,3.33
2022-08-21T00:28:36.181Z,2.80
2022-08-21T00:31:06.361Z,2.92
2022-08-21T00:33:35.774Z,2.75
2022-08-21T00:36:04.081Z,3.17
2022-08-21T00:38:30.981Z,2.80
2022-08-21T00:41:13.516Z,2.97
2022-08-21T00:43:52.553Z,2.20
2022-08-21T00:46:19.365Z,2.17
2022-08-21T00:48:53.489Z,2.53
2022-08-21T00:51:38.263Z,2.20
2022-08-21T00:54:15.019Z,2.00
2022-08-21T00:56:52.637Z,2.30
2022-08-21T00:59:23.122Z,2.80
2022-08-21T01:01:54.532Z,2.30
2022-08-21T01:04:23.156Z,2.45
2022-08-21T01:06:50.356Z,2.38
2022-08-21T01:09:19.880Z,2.13
2022-08-21T01:11:46.640Z,2.30
2022-08-21T01:14:16.512Z,2.50
2022-08-21T01:16:52.001Z,2.35
2022-08-21T01:19:26.384Z,2.72
2022-08-21T01:22:00.594Z,2.25
2022-08-21T01:24:29.515Z,2.70
2022-08-21T01:26:56.560Z,2.40
2022-08-21T01:29:58.349Z,2.45
2022-08-21T01:32:26.100Z,2.50
2022-08-21T01:34:55.926Z,2.58
2022-08-21T01:37:25.596Z,2.10
2022-08-21T01:39:53.195Z,1.98
2022-08-21T01:42:28.684Z,2.65
2022-08-21T01:44:56.215Z,3.17
2022-08-21T01:47:23.891Z,2.80
2022-08-21T01:49:55.948Z,2.08
2022-08-21T01:52:22.763Z,2.20
2022-08-21T01:54:55.425Z,2.55
2022-08-21T01:57:27.235Z,2.75
2022-08-21T01:59:54.307Z,2.53
2022-08-21T02:02:23.062Z,2.67
2022-08-21T02:04:49.785Z,2.28
2022-08-21T02:07:22.092Z,2.30
2022-08-21T02:09:48.778Z,2.33
2022-08-21T02:12:20.840Z,2.30
2022-08-21T02:14:48.369Z,2.42
2022-08-21T02:17:15.124Z,2.35
2022-08-21T02:19:44.892Z,2.17
2022-08-21T02:22:16.760Z,2.47
2022-08-21T02:24:53.920Z,2.60
2022-08-21T02:27:27.029Z,2.40
2022-08-21T02:29:59.327Z,2.80
2022-08-21T02:32:26.992Z,2.50
2022-08-21T02:34:54.204Z,2.33
2022-08-21T02:37:21.189Z,2.28
2022-08-21T02:39:47.968Z,2.67
2022-08-21T02:42:17.083Z,2.40
2022-08-21T02:44:43.850Z,2.88
2022-08-21T02:47:12.966Z,2.88
2022-08-21T02:49:42.060Z,3.10
2022-08-21T02:52:08.757Z,3.35
2022-08-21T02:54:35.438Z,2.38
2022-08-21T02:57:02.224Z,2.97
2022-08-21T02:59:28.894Z,3.00
2022-08-21T03:01:56.807Z,2.63
2022-08-21T03:04:23.589Z,3.05
2022-08-21T03:06:50.261Z,3.15
2022-08-21T03:09:17.038Z,3.20
2022-08-21T03:11:47.573Z,3.83
2022-08-21T03:14:14.302Z,3.33
2022-08-21T03:16:45.076Z,3.58
2022-08-21T03:19:11.812Z,3.30
2022-08-21T03:21:40.641Z,3.58
2022-08-21T03:24:07.868Z,3.45
2022-08-21T03:26:42.092Z,4.13
2022-08-21T03:29:08.826Z,3.35
2022-08-21T03:31:40.945Z,3.75
2022-08-21T03:34:07.644Z,3.67
2022-08-21T03:36:39.749Z,3.95
2022-08-21T03:39:06.891Z,3.55
2022-08-21T03:41:33.604Z,3.83
2022-08-21T03:44:08.900Z,3.55
2022-08-21T03:46:40.276Z,4.43
2022-08-21T03:49:07.555Z,4.75
2022-08-21T03:51:36.355Z,4.90
2022-08-21T03:54:05.766Z,4.50
2022-08-21T03:56:36.676Z,4.57
2022-08-21T03:59:04.433Z,4.72
2022-08-21T04:01:35.267Z,4.60
2022-08-21T04:04:09.174Z,4.63
2022-08-21T04:06:37.988Z,4.38
2022-08-21T04:09:04.762Z,4.88
2022-08-21T04:11:32.946Z,4.60
2022-08-21T04:14:03.785Z,5.20
2022-08-21T04:16:33.250Z,4.80
2022-08-21T04:19:02.658Z,4.90
2022-08-21T04:21:30.287Z,4.68
2022-08-21T04:24:00.241Z,3.97
2022-08-21T04:26:28.639Z,5.03
2022-08-21T04:28:59.604Z,4.55
2022-08-21T04:31:26.428Z,4.85
2022-08-21T04:33:53.341Z,4.03
2022-08-21T04:36:24.828Z,4.38
2022-08-21T04:38:52.744Z,3.88
2022-08-21T04:41:28.018Z,4.22
2022-08-21T04:43:59.298Z,4.13
2022-08-21T04:46:26.180Z,3.72
2022-08-21T04:48:52.847Z,4.10
2022-08-21T04:51:30.135Z,4.00
2022-08-21T04:54:15.516Z,3.85
2022-08-21T04:56:55.815Z,4.57
2022-08-21T04:59:28.551Z,4.78
2022-08-21T05:01:58.875Z,4.70
2022-08-21T05:04:29.125Z,4.93
2022-08-21T05:07:00.906Z,4.32
2022-08-21T05:09:28.205Z,4.22
2022-08-21T05:12:05.568Z,3.38
2022-08-21T05:14:32.369Z,3.65
2022-08-21T05:16:59.769Z,3.80
2022-08-21T05:19:29.151Z,3.83
2022-08-21T05:21:55.993Z,3.47
2022-08-21T05:24:22.836Z,3.20
2022-08-21T05:26:53.186Z,3.60
2022-08-21T05:29:22.776Z,3.38
2022-08-21T05:31:49.801Z,3.90
2022-08-21T05:34:24.224Z,3.05
2022-08-21T05:36:51.129Z,3.30
2022-08-21T05:39:18.080Z,3.47
2022-08-21T05:41:47.025Z,3.40
2022-08-21T05:44:16.395Z,3.30
2022-08-21T05:46:43.129Z,3.47
2022-08-21T05:49:12.563Z,3.28
2022-08-21T05:51:42.246Z,3.08
2022-08-21T05:54:09.308Z,3.42
2022-08-21T05:56:36.020Z,3.55
2022-08-21T05:59:02.864Z,3.05
2022-08-21T06:01:35.626Z,3.95
2022-08-21T06:04:02.440Z,3.63
2022-08-21T06:06:29.503Z,3.25
2022-08-21T06:08:56.174Z,3.15
2022-08-21T06:11:25.822Z,2.75
2022-08-21T06:13:55.517Z,2.72
2022-08-21T06:16:23.611Z,3.72
2022-08-21T06:18:50.502Z,3.58
2022-08-21T06:21:17.287Z,2.47
2022-08-21T06:23:45.797Z,3.20
2022-08-21T06:26:14.363Z,3.05
2022-08-21T06:28:42.345Z,2.70
2022-08-21T06:31:19.681Z,3.05
2022-08-21T06:33:47.175Z,2.53
2022-08-21T06:36:14.135Z,2.50
2022-08-21T06:38:41.183Z,2.35
2022-08-21T06:41:08.263Z,2.85
2022-08-21T06:43:39.689Z,2.30
2022-08-21T06:46:08.522Z,2.17
2022-08-21T06:48:35.346Z,2.63
2022-08-21T06:51:02.428Z,1.83
2022-08-21T06:53:29.144Z,1.95
2022-08-21T06:55:58.814Z,2.22
2022-08-21T06:58:25.644Z,2.30
2022-08-21T07:00:53.057Z,2.70
2022-08-21T07:03:28.131Z,2.70
2022-08-21T07:05:55.716Z,2.60
2022-08-21T07:08:22.557Z,2.08
2022-08-21T07:10:49.943Z,2.75
2022-08-21T07:13:17.348Z,3.00
2022-08-21T07:15:44.093Z,2.60
2022-08-21T07:18:10.814Z,2.78
2022-08-21T07:20:37.625Z,2.90
2022-08-21T07:23:08.074Z,2.45
2022-08-21T07:25:34.798Z,1.80
2022-08-21T07:28:01.624Z,2.00
2022-08-21T07:30:28.598Z,2.17
2022-08-21T07:32:55.578Z,1.90
2022-08-21T07:35:23.550Z,1.58
2022-08-21T07:37:50.706Z,1.90
2022-08-21T07:40:18.273Z,2.78
2022-08-21T07:42:47.716Z,1.80
2022-08-21T07:45:15.069Z,2.38
2022-08-21T07:47:43.072Z,2.30
2022-08-21T07:50:12.411Z,1.63
2022-08-21T07:52:40.779Z,1.52
2022-08-21T07:55:09.235Z,1.30
2022-08-21T07:57:36.073Z,1.70
2022-08-21T08:00:05.290Z,1.50
2022-08-21T08:02:39.001Z,1.42
2022-08-21T08:05:08.956Z,1.80
2022-08-21T08:07:35.888Z,1.48
2022-08-21T08:10:04.202Z,1.38
2022-08-21T08:12:30.980Z,1.30
2022-08-21T08:14:58.884Z,1.63
2022-08-21T08:17:26.706Z,1.92
2022-08-21T08:19:53.509Z,1.58
2022-08-21T08:22:24.838Z,1.40
2022-08-21T08:24:52.796Z,3.22
2022-08-21T08:27:19.693Z,1.38
2022-08-21T08:29:49.622Z,1.88
2022-08-21T08:32:18.516Z,2.15
2022-08-21T08:34:47.659Z,1.17
2022-08-21T08:37:14.661Z,1.02
2022-08-21T08:39:44.064Z,1.05
2022-08-21T08:42:33.477Z,1.73
2022-08-21T08:45:11.826Z,1.08
2022-08-21T08:47:43.236Z,1.13
2022-08-21T08:50:25.751Z,0.77
2022-08-21T08:55:38.343Z,1.00
2022-08-21T08:58:10.601Z,0.80
2022-08-21T09:00:40.113Z,0.73
2022-08-21T09:03:08.353Z,0.70
2022-08-21T09:05:47.345Z,0.88
2022-08-21T09:08:27.820Z,0.80
2022-08-21T09:11:01.991Z,0.80
2022-08-21T09:14:07.739Z,0.95
2022-08-21T09:16:40.148Z,0.88
2022-08-21T09:19:26.086Z,0.90
2022-08-21T09:22:38.033Z,1.00
2022-08-21T09:25:39.765Z,1.13
2022-08-21T09:28:13.535Z,1.10
2022-08-21T09:30:41.861Z,0.80
2022-08-21T09:33:12.771Z,0.93
2022-08-21T09:35:56.678Z,1.17
2022-08-21T09:38:33.085Z,1.33
2022-08-21T09:41:05.399Z,0.75
2022-08-21T09:46:06.986Z,0.95
2022-08-21T09:48:48.714Z,1.10
2022-08-21T09:51:25.253Z,1.40
2022-08-21T09:54:19.252Z,0.80
2022-08-21T09:57:33.516Z,1.02
2022-08-21T10:00:18.894Z,0.90
2022-08-21T10:02:45.737Z,0.75
2022-08-21T10:05:23.739Z,1.55
2022-08-21T10:07:51.450Z,0.80
2022-08-21T10:10:30.634Z,0.85
2022-08-21T10:13:14.741Z,0.98
2022-08-21T10:16:13.836Z,1.23
2022-08-21T10:19:02.461Z,0.80
2022-08-21T10:21:57.288Z,0.95
2022-08-21T10:24:33.245Z,0.70
2022-08-21T10:27:13.177Z,1.08
2022-08-21T10:29:48.485Z,1.55
2022-08-21T10:32:32.806Z,0.80
2022-08-21T10:35:21.736Z,0.90
2022-08-21T10:38:33.487Z,1.20
2022-08-21T10:41:07.200Z,1.30
2022-08-21T10:44:13.873Z,0.70
2022-08-21T10:46:49.226Z,0.85
2022-08-21T10:49:31.156Z,0.90
2022-08-21T10:52:36.128Z,0.90
2022-08-21T10:55:25.381Z,0.80
2022-08-21T10:57:59.680Z,1.00
2022-08-21T11:03:14.540Z,0.80
2022-08-21T11:05:51.065Z,0.85
2022-08-21T11:08:40.605Z,1.20
2022-08-21T11:14:01.259Z,1.00
2022-08-21T11:16:47.464Z,0.98
2022-08-21T11:19:27.408Z,1.30
2022-08-21T11:21:57.142Z,1.23
2022-08-21T11:24:45.500Z,0.57
2022-08-21T11:27:33.056Z,1.35
2022-08-21T11:30:01.196Z,1.13
2022-08-21T11:33:05.442Z,0.82
2022-08-21T11:35:37.988Z,1.00
2022-08-21T11:38:26.125Z,1.00
2022-08-21T11:41:03.465Z,0.82
2022-08-21T11:43:32.862Z,1.00
2022-08-21T11:46:23.823Z,0.90
2022-08-21T11:49:21.781Z,0.60
2022-08-21T11:52:10.234Z,0.90
2022-08-21T11:54:48.938Z,1.38
2022-08-21T11:57:23.257Z,0.90
2022-08-21T12:00:17.301Z,0.80
2022-08-21T12:02:53.344Z,0.90
2022-08-21T12:05:34.044Z,1.30
2022-08-21T12:08:47.777Z,0.90
2022-08-21T12:11:20.295Z,0.70
2022-08-21T12:14:02.045Z,1.15
2022-08-21T12:16:39.442Z,0.88
2022-08-21T12:19:16.682Z,0.80
2022-08-21T12:21:58.023Z,1.20
2022-08-21T12:24:27.807Z,1.58
2022-08-21T12:27:01.107Z,0.80
2022-08-21T12:29:32.404Z,0.82
2022-08-21T12:32:20.021Z,0.80
2022-08-21T12:34:55.875Z,1.05
2022-08-21T12:37:41.697Z,0.93
2022-08-21T12:40:17.954Z,0.50
2022-08-21T12:42:58.673Z,0.80
2022-08-21T12:45:32.904Z,0.80
2022-08-21T12:48:18.654Z,1.00
2022-08-21T12:50:53.497Z,0.98
2022-08-21T12:53:33.070Z,1.25
2022-08-21T12:56:04.656Z,0.65
2022-08-21T12:58:32.437Z,0.75
2022-08-21T13:01:10.146Z,1.08
2022-08-21T13:03:39.833Z,0.80
2022-08-21T13:06:07.788Z,0.70
2022-08-21T13:08:43.480Z,0.70
2022-08-21T13:11:32.594Z,0.57
2022-08-21T13:14:04.825Z,0.68
2022-08-21T13:16:36.273Z,0.70
2022-08-21T13:19:06.423Z,0.77
2022-08-21T13:21:39.393Z,1.15
2022-08-21T13:27:30.989Z,0.95
2022-08-21T13:30:06.331Z,0.80
2022-08-21T13:32:38.617Z,0.52
2022-08-21T13:35:36.602Z,0.70
2022-08-21T13:38:06.118Z,0.93
2022-08-21T13:40:40.905Z,0.77
2022-08-21T13:43:21.366Z,0.60
2022-08-21T13:45:54.357Z,0.70
2022-08-21T13:48:27.164Z,0.60
2022-08-21T13:50:56.451Z,0.73
2022-08-21T13:58:29.298Z,0.50
2022-08-21T14:00:57.362Z,0.60
2022-08-21T14:03:38.664Z,0.43
2022-08-21T14:06:26.974Z,0.70
2022-08-21T14:09:01.105Z,0.80
2022-08-21T14:11:33.654Z,0.77
2022-08-21T14:14:14.680Z,0.80
2022-08-21T14:16:53.874Z,0.90
2022-08-21T14:19:24.997Z,0.60
2022-08-21T14:24:24.459Z,0.50
2022-08-21T14:27:13.134Z,0.63
2022-08-21T14:29:43.860Z,0.70
2022-08-21T14:32:29.206Z,0.68
2022-08-21T14:34:59.257Z,0.60
2022-08-21T14:37:28.471Z,0.70
2022-08-21T14:39:55.212Z,0.77
2022-08-21T14:42:23.251Z,0.50
2022-08-21T14:44:50.013Z,0.60
2022-08-21T14:47:16.902Z,0.47
2022-08-21T14:49:43.896Z,0.68
2022-08-21T14:52:10.593Z,0.95
2022-08-21T14:54:37.328Z,0.73
2022-08-21T14:57:10.654Z,0.82
2022-08-21T14:59:38.527Z,0.52
2022-08-21T15:02:06.053Z,0.47
2022-08-21T15:04:33.348Z,0.43
2022-08-21T15:07:00.069Z,0.40
2022-08-21T15:09:26.900Z,0.52
2022-08-21T15:11:57.932Z,0.55
2022-08-21T15:14:30.325Z,0.88
2022-08-21T15:16:58.190Z,0.57
2022-08-21T15:19:27.672Z,0.82
2022-08-21T15:21:54.453Z,0.60
2022-08-21T15:24:21.234Z,0.50
2022-08-21T15:26:48.340Z,0.60
2022-08-21T15:29:15.186Z,0.50
2022-08-21T15:32:01.696Z,0.63
2022-08-21T15:34:31.228Z,0.70
2022-08-21T15:36:59.072Z,0.50
2022-08-21T15:39:31.345Z,0.90
2022-08-21T15:41:59.112Z,0.50
2022-08-21T15:44:27.747Z,0.65
2022-08-21T15:46:55.065Z,0.80
2022-08-21T15:49:21.764Z,0.82
2022-08-21T15:51:48.456Z,0.68
2022-08-21T15:54:15.197Z,0.77
2022-08-21T15:56:47.348Z,0.68
2022-08-21T15:59:17.888Z,0.90
2022-08-21T16:01:45.738Z,0.60
2022-08-21T16:04:20.376Z,0.60
2022-08-21T16:06:54.022Z,0.75
2022-08-21T16:09:22.939Z,0.63
2022-08-21T16:11:50.024Z,0.70
2022-08-21T16:14:17.662Z,0.85
2022-08-21T16:16:44.521Z,0.82
2022-08-21T16:19:12.766Z,1.00
2022-08-21T16:21:39.700Z,1.00
2022-08-21T16:24:06.538Z,0.60
2022-08-21T16:26:33.845Z,0.70
2022-08-21T16:29:02.666Z,0.65
2022-08-21T16:31:30.880Z,0.50
2022-08-21T16:33:58.285Z,0.80
2022-08-21T16:36:26.663Z,0.70
2022-08-21T16:38:55.060Z,0.77
2022-08-21T16:41:23.281Z,0.90
2022-08-21T16:43:51.753Z,1.17
2022-08-21T16:46:20.584Z,1.60
2022-08-21T16:48:47.859Z,1.00
2022-08-21T16:51:15.817Z,1.17
2022-08-21T16:53:43.671Z,0.95
2022-08-21T16:56:13.236Z,0.70
2022-08-21T16:58:44.220Z,0.90
2022-08-21T17:01:14.936Z,0.80
2022-08-21T17:03:45.700Z,1.05
2022-08-21T17:06:14.430Z,1.35
2022-08-21T17:08:42.113Z,1.35
2022-08-21T17:11:37.219Z,1.00
2022-08-21T17:14:15.639Z,0.60
2022-08-21T17:16:45.923Z,0.85
2022-08-21T17:19:13.268Z,1.10
2022-08-21T17:21:40.251Z,1.10
2022-08-21T17:24:07.346Z,1.10
2022-08-21T17:26:34.367Z,1.30
2022-08-21T17:29:01.198Z,1.25
2022-08-21T17:31:29.488Z,0.95
2022-08-21T17:33:56.599Z,0.88
2022-08-21T17:36:26.661Z,1.10
2022-08-21T17:38:53.765Z,1.42
2022-08-21T17:41:21.016Z,1.80
2022-08-21T17:43:47.780Z,1.05
2022-08-21T17:46:21.283Z,0.88
2022-08-21T17:48:47.962Z,1.58
2022-08-21T17:51:16.934Z,1.10
2022-08-21T17:53:44.891Z,1.23
2022-08-21T17:56:14.376Z,1.02
2022-08-21T17:58:45.781Z,0.95
2022-08-21T18:01:12.747Z,1.02
2022-08-21T18:03:42.017Z,1.30
2022-08-21T18:06:14.463Z,1.17
2022-08-21T18:08:45.975Z,0.93
2022-08-21T18:11:18.000Z,1.45
2022-08-21T18:13:57.554Z,1.60
2022-08-21T18:16:24.254Z,0.80
2022-08-21T18:18:51.837Z,1.05
2022-08-21T18:21:23.406Z,0.95
2022-08-21T18:23:52.150Z,0.90
2022-08-21T18:26:34.742Z,1.10
2022-08-21T18:29:03.959Z,0.90
2022-08-21T18:31:35.595Z,1.20
2022-08-21T18:34:10.629Z,1.33
2022-08-21T18:36:40.115Z,1.10
2022-08-21T18:39:34.333Z,1.27
2022-08-21T18:41:56.305Z,1.38
2022-08-21T18:44:27.185Z,1.20
2022-08-21T18:47:01.968Z,1.58
2022-08-21T18:49:28.949Z,1.05
2022-08-21T18:51:56.524Z,1.20
2022-08-21T18:54:24.443Z,1.30
2022-08-21T18:56:54.960Z,1.30
2022-08-21T18:59:27.133Z,1.88
2022-08-21T19:01:59.675Z,2.30
2022-08-21T19:04:43.814Z,1.30
2022-08-21T19:07:13.493Z,2.03
2022-08-21T19:09:41.992Z,1.67
2022-08-21T19:12:15.294Z,1.63
2022-08-21T19:14:42.074Z,1.58
2022-08-21T19:17:13.359Z,1.77
2022-08-21T19:19:40.133Z,1.48
2022-08-21T19:24:58.247Z,1.65
2022-08-21T19:27:27.494Z,1.77
2022-08-21T19:29:54.156Z,1.25
2022-08-21T19:32:21.279Z,1.27
2022-08-21T19:34:51.188Z,1.58
2022-08-21T19:37:28.206Z,1.70
2022-08-21T19:39:55.616Z,1.80
2022-08-21T19:42:28.647Z,1.40
2022-08-21T19:44:57.837Z,1.60
2022-08-21T19:53:05.176Z,3.03
2022-08-21T19:55:43.762Z,2.35
2022-08-21T19:58:38.617Z,2.63
2022-08-21T20:03:57.178Z,2.58
2022-08-21T20:06:25.388Z,2.20
2022-08-21T20:08:56.821Z,2.33
2022-08-21T20:11:47.380Z,2.58
2022-08-21T20:14:16.973Z,2.33
2022-08-21T20:16:44.281Z,2.58
2022-08-21T20:19:14.474Z,2.42
2022-08-21T20:21:45.414Z,2.65
2022-08-21T20:24:15.215Z,2.75
2022-08-21T20:32:27.201Z,2.42
2022-08-21T20:34:54.008Z,2.78
2022-08-21T20:37:35.631Z,2.65
2022-08-21T20:40:10.008Z,2.78
2022-08-21T20:45:32.245Z,2.28
2022-08-21T20:50:36.977Z,2.40
2022-08-21T20:53:21.800Z,2.67
2022-08-21T20:55:51.033Z,2.40
2022-08-21T20:58:33.420Z,2.58
2022-08-21T21:01:07.405Z,2.70
2022-08-21T21:03:43.844Z,2.25
2022-08-21T21:06:21.390Z,3.00
2022-08-21T21:09:06.012Z,2.75
2022-08-21T21:14:45.165Z,3.22
2022-08-21T21:20:24.943Z,2.65
2022-08-21T21:22:57.225Z,2.70
2022-08-21T21:25:42.677Z,2.90
2022-08-21T21:28:24.873Z,2.80
2022-08-21T21:30:57.782Z,2.42
2022-08-21T21:33:28.707Z,2.33
2022-08-21T21:36:10.535Z,2.65
2022-08-21T21:38:51.482Z,2.47
2022-08-21T21:41:48.346Z,2.22
2022-08-21T21:44:35.861Z,1.98
2022-08-21T21:47:24.870Z,2.50
2022-08-21T21:50:42.594Z,2.90
2022-08-21T21:53:38.780Z,2.20
2022-08-21T21:56:22.288Z,2.28
2022-08-21T21:59:01.873Z,2.30
2022-08-21T22:02:03.385Z,1.95
2022-08-21T22:04:55.266Z,2.58
2022-08-21T22:07:45.981Z,2.42
2022-08-21T22:10:19.658Z,2.13
2022-08-21T22:13:09.750Z,2.40
2022-08-21T22:15:37.717Z,2.20
2022-08-21T22:18:23.167Z,2.10
2022-08-21T22:21:22.428Z,1.90
2022-08-21T22:23:59.641Z,1.95
2022-08-21T22:26:39.511Z,2.30
2022-08-21T22:29:18.981Z,2.88
2022-08-21T22:32:02.671Z,2.60
2022-08-21T22:34:32.244Z,2.22
2022-08-21T22:37:05.617Z,2.13
2022-08-21T22:39:39.465Z,2.20
2022-08-21T22:42:14.737Z,2.30
2022-08-21T22:44:58.827Z,2.40
2022-08-21T22:47:35.116Z,2.00
2022-08-21T22:50:15.728Z,2.20
2022-08-21T22:52:52.265Z,3.35
2022-08-21T22:55:43.956Z,2.50
2022-08-21T22:58:18.442Z,2.20
2022-08-21T23:03:42.271Z,2.30
2022-08-21T23:06:35.523Z,1.90
2022-08-21T23:09:11.274Z,1.95
2022-08-21T23:11:42.632Z,2.38
2022-08-21T23:14:14.223Z,2.42
2022-08-21T23:16:56.512Z,2.33
2022-08-21T23:19:44.499Z,2.17
2022-08-21T23:22:28.761Z,2.15
2022-08-21T23:24:58.281Z,2.08
2022-08-21T23:27:45.262Z,2.25
2022-08-21T23:30:22.750Z,2.10
2022-08-21T23:33:25.916Z,2.40
2022-08-21T23:36:58.877Z,2.05
2022-08-21T23:39:44.530Z,2.38
2022-08-21T23:42:49.683Z,2.15
2022-08-21T23:46:04.396Z,2.40
2022-08-21T23:49:05.959Z,2.13
2022-08-21T23:52:16.811Z,2.22
2022-08-21T23:55:08.134Z,2.28
2022-08-21T23:57:40.778Z,2.70
